Latest Weather Observations for Mount Isa

IDQ60801

Issued at 3:35 pm EST Friday 19 September 2014 (issued every 30 minutes, with the page automatically refreshed every 10 minutes)

About weather observations | Map of weather stations | Latest weather observations for QLD | Other Formats
Station Details ID: 029127 Name: MOUNT ISA AERO Lat: -20.68 Lon: 139.49 Height: 340.3 m
Data from the previous 72 hours. | See also: Recent months at Mount Isa
Date/Time
EST
Temp
°C
App
Temp
°C
Dew
Point
Rel
Hum
%
Delta-T
°C
Wind Press
QNH
hPa
Press
MSL
hPa
Rain
since 9 am
mm
Dir
 
Spd
km/h
Gust
km/h
Spd
kts
Gust
kts
19/03:30pm 32.7 28.7 -8.1 7 17.6 W 6 7 3 4 1015.4 - 0.0
19/03:00pm 32.2 26.4 -8.7 6 17.4 E 15 24 8 13 1015.7 1014.3 0.0
19/02:30pm 32.0 25.1 -11.3 5 17.6 E 20 28 11 15 1016.1 - 0.0
19/02:00pm 31.3 25.6 -13.2 5 17.4 SE 13 22 7 12 1016.7 - 0.0
19/01:30pm 31.1 24.9 -14.4 4 17.4 ESE 15 26 8 14 1017.2 - 0.0
19/01:00pm 31.2 24.9 -17.3 3 17.7 E 15 28 8 15 1017.8 - 0.0
19/12:30pm 30.2 24.2 -19.6 3 17.3 E 13 30 7 16 1018.4 - 0.0
19/12:00pm 30.4 23.3 -18.1 3 17.3 E 19 32 10 17 1019.0 1017.6 0.0
19/11:30am 29.2 21.7 -22.2 3 16.9 ENE 20 32 11 17 1019.6 - 0.0
19/11:00am 29.0 22.2 -19.1 3 16.6 ESE 17 28 9 15 1020.1 - 0.0
19/10:30am 27.9 20.8 -17.6 4 15.9 E 19 26 10 14 1020.5 - 0.0
19/10:00am 27.0 19.8 -15.0 5 15.2 E 20 30 11 16 1020.5 - 0.0
19/09:30am 26.0 18.9 -13.4 6 14.5 E 20 28 11 15 1020.8 - 0.0
19/09:00am 24.7 18.3 -12.3 8 13.7 ESE 17 26 9 14 1020.7 1019.3 0.0
19/08:30am 23.6 16.7 -12.9 8 13.2 ESE 19 26 10 14 1020.7 - 0.0
19/08:00am 21.9 17.7 -7.6 13 11.6 S 7 9 4 5 1020.0 - 0.0
19/07:30am 18.1 13.9 -3.6 22 8.9 SE 9 13 5 7 1019.7 - 0.0
19/07:00am 13.7 9.5 -4.1 29 6.9 ESE 9 11 5 6 1019.5 - 0.0
19/06:30am 16.1 11.7 -6.3 21 8.5 SE 9 11 5 6 1019.2 - 0.0
19/06:00am 16.7 11.9 -5.9 21 8.7 SE 11 17 6 9 1018.9 1017.5 0.0
19/05:30am 17.2 13.2 -5.7 20 8.9 SE 7 11 4 6 1018.6 - 0.0
19/05:00am 19.2 14.8 -9.8 13 10.6 ESE 7 11 4 6 1018.1 - 0.0
19/04:30am 19.4 14.0 -8.5 14 10.5 SSE 13 17 7 9 1017.9 - 0.0
19/04:00am 20.1 13.4 -10.2 12 11.1 S 19 24 10 13 1017.7 - 0.0
19/03:30am 20.5 14.3 -9.5 12 11.2 SSE 17 22 9 12 1018.1 - 0.0
19/03:00am 20.5 15.2 -7.6 14 10.9 SSE 13 17 7 9 1018.3 1016.9 0.0
19/02:30am 21.1 15.9 -6.5 15 11.0 SSE 13 17 7 9 1018.7 - 0.0
19/02:00am 22.2 16.1 -7.9 12 11.8 SSE 17 19 9 10 1018.5 - 0.0
19/01:30am 22.7 17.0 -7.5 12 12.0 SSE 15 19 8 10 1018.4 - 0.0
19/01:00am 22.9 18.1 -6.3 13 11.9 SSE 11 15 6 8 1018.6 - 0.0
19/12:30am 22.8 18.2 -4.5 16 11.5 SSE 11 15 6 8 1019.1 - 0.0
19/12:00am 23.0 18.0 -4.0 16 11.5 SSE 13 17 7 9 1019.2 1017.9 0.0
 
Date/Time
EST
Temp
°C
App
Temp
°C
Dew
Point
Rel
Hum
%
Delta-T
°C
Wind Press
QNH
hPa
Press
MSL
hPa
Rain
since 9 am
mm
Dir
 
Spd
km/h
Gust
km/h
Spd
kts
Gust
kts
18/11:30pm 23.5 17.8 -3.7 16 11.7 SSE 17 20 9 11 1019.3 - 0.0
18/11:00pm 24.3 18.1 -4.5 14 12.3 SSE 19 24 10 13 1019.3 - 0.0
18/10:30pm 24.7 18.9 -4.4 14 12.5 SSE 17 20 9 11 1019.3 - 0.0
18/10:00pm 25.3 19.1 -4.8 13 12.9 SSE 19 28 10 15 1019.1 - 0.0
18/09:30pm 25.6 19.5 -4.0 14 12.9 SSE 19 32 10 17 1018.9 - 0.0
18/09:00pm 25.5 20.3 -2.8 15 12.6 SSE 15 19 8 10 1018.6 1017.2 0.0
18/08:30pm 26.5 21.1 -4.5 12 13.5 SSE 15 19 8 10 1018.3 - 0.0
18/08:00pm 27.1 21.3 -4.3 12 13.8 SSE 17 20 9 11 1017.9 - 0.0
18/07:30pm 27.9 22.5 -4.6 11 14.3 SSE 15 20 8 11 1017.4 - 0.0
18/07:00pm 28.3 22.6 -3.4 12 14.3 SSE 17 22 9 12 1016.7 - 0.0
18/06:30pm 29.2 23.7 -1.9 13 14.5 SSE 17 22 9 12 1016.5 - 0.0
18/06:00pm 30.2 23.9 -4.0 10 15.5 S 20 26 11 14 1016.1 1014.7 0.0
18/05:30pm 30.9 24.7 -4.5 10 16.0 S 19 26 10 14 1015.9 - 0.0
18/05:00pm 31.5 25.8 -3.7 10 16.2 SE 17 30 9 16 1015.8 - 0.0
18/04:30pm 31.5 25.4 -3.7 10 16.2 SSE 19 30 10 16 1015.7 - 0.0
18/04:00pm 32.1 26.8 -4.0 9 16.6 SSE 15 37 8 20 1015.8 - 0.0
18/03:30pm 31.3 25.2 -2.3 11 15.8 S 20 30 11 16 1016.0 - 0.0
18/03:00pm 32.1 26.0 -4.0 9 16.6 SSW 19 30 10 16 1016.4 1015.0 0.0
18/02:30pm 31.7 27.8 -1.6 11 15.9 WSW 9 17 5 9 1016.8 - 0.0
18/02:00pm 30.7 25.4 -3.6 10 15.7 E 15 28 8 15 1017.4 - 0.0
18/01:30pm 30.6 24.7 -2.4 11 15.4 E 19 26 10 14 1017.8 - 0.0
18/01:00pm 30.8 25.2 -3.3 11 15.7 E 17 28 9 15 1018.3 - 0.0
18/12:30pm 30.0 24.1 -2.1 12 15.0 SE 19 26 10 14 1019.0 - 0.0
18/12:00pm 29.4 22.8 -2.9 12 14.8 SE 22 26 12 14 1019.5 1018.2 0.0
18/11:30am 29.0 23.5 -2.0 13 14.4 ESE 17 24 9 13 1020.2 - 0.0
18/11:00am 27.4 21.4 -1.6 15 13.4 E 20 32 11 17 1020.8 - 0.0
18/10:30am 26.4 20.4 -1.5 16 12.8 E 20 28 11 15 1021.2 - 0.0
18/10:00am 25.4 18.6 -1.7 16 12.3 SE 24 35 13 19 1021.4 - 0.0
18/09:30am 24.3 16.9 -0.9 19 11.5 SSE 28 37 15 20 1021.5 - 0.0
18/09:00am 23.4 16.8 -0.5 20 10.9 SE 24 32 13 17 1021.7 1020.3 0.0
18/08:30am 22.1 15.5 -0.5 22 10.2 SE 24 32 13 17 1021.5 - 0.0
18/08:00am 21.6 16.4 0.4 24 9.7 ESE 17 26 9 14 1021.3 - 0.0
18/07:30am 20.4 16.8 0.7 27 9.0 ESE 9 11 5 6 1021.0 - 0.0
18/07:00am 19.3 15.3 0.4 28 8.5 SE 11 15 6 8 1020.8 - 0.0
18/06:30am 18.4 13.4 1.5 32 7.7 SE 17 26 9 14 1020.3 - 0.0
18/06:00am 19.5 14.4 0.8 28 8.5 SE 17 26 9 14 1019.9 1018.6 0.0
18/05:30am 20.1 15.0 0.5 27 8.9 SSE 17 26 9 14 1019.5 - 0.0
18/05:00am 20.2 14.7 0.7 27 8.9 SSE 19 28 10 15 1019.3 - 0.0
18/04:30am 20.5 14.9 -0.2 25 9.3 SSE 19 30 10 16 1019.2 - 0.0
18/04:00am 21.0 16.4 -0.7 23 9.7 SSE 13 17 7 9 1019.0 - 0.0
18/03:30am 21.7 17.1 -1.3 21 10.2 SSE 13 19 7 10 1018.8 - 0.0
18/03:00am 22.0 15.9 -3.6 18 10.9 SSE 19 30 10 16 1018.8 1017.4 0.0
18/02:30am 21.6 17.0 -3.7 18 10.7 SSE 11 13 6 7 1018.6 - 0.0
18/02:00am 20.7 17.1 -2.2 21 9.9 S 7 11 4 6 1019.0 - 0.0
18/01:30am 22.6 18.4 -4.0 16 11.3 SSE 9 13 5 7 1019.2 - 0.0
18/01:00am 23.0 17.9 -5.0 15 11.7 SSE 13 17 7 9 1019.3 - 0.0
18/12:30am 22.8 17.5 -4.0 16 11.4 SSE 15 19 8 10 1019.3 - 0.0
18/12:00am 22.0 17.2 -2.3 19 10.6 SSE 13 15 7 8 1019.3 1018.0 0.0
 
Date/Time
EST
Temp
°C
App
Temp
°C
Dew
Point
Rel
Hum
%
Delta-T
°C
Wind Press
QNH
hPa
Press
MSL
hPa
Rain
since 9 am
mm
Dir
 
Spd
km/h
Gust
km/h
Spd
kts
Gust
kts
17/11:30pm 23.4 18.4 -3.9 16 11.7 S 13 15 7 8 1019.1 - 0.0
17/11:00pm 23.7 18.8 -3.6 16 11.8 S 13 15 7 8 1019.1 - 0.0
17/10:30pm 24.2 19.3 -3.8 15 12.1 S 13 15 7 8 1019.0 - 0.0
17/10:00pm 24.7 19.7 -4.4 14 12.5 S 13 15 7 8 1018.8 - 0.0
17/09:30pm 24.6 20.1 -3.2 15 12.2 S 11 13 6 7 1018.5 - 0.0
17/09:00pm 25.7 20.3 -4.2 13 13.0 SSE 15 17 8 9 1018.2 1016.8 0.0
17/08:30pm 26.7 20.9 -4.4 12 13.6 SSE 17 22 9 12 1017.7 - 0.0
17/08:00pm 27.4 21.5 -5.6 11 14.2 SSE 17 24 9 13 1017.2 - 0.0
17/07:30pm 28.1 21.6 -6.2 10 14.7 S 20 26 11 14 1016.7 - 0.0
17/07:00pm 28.8 22.3 -7.5 9 15.3 S 19 24 10 13 1016.4 - 0.0
17/06:30pm 29.7 21.9 -7.5 8 15.8 S 26 32 14 17 1015.9 - 0.0
17/06:00pm 30.9 24.8 -8.3 7 16.6 SSE 17 24 9 13 1015.6 1014.2 0.0
17/05:30pm 31.5 24.1 -7.3 7 16.8 S 24 32 13 17 1015.2 - 0.0
17/05:00pm 32.1 26.2 -5.7 8 16.9 SSW 17 26 9 14 1015.0 - 0.0
17/04:30pm 32.6 25.4 -9.2 6 17.7 SE 22 30 12 16 1015.0 - 0.0
17/04:00pm 32.0 25.2 -9.6 6 17.4 SSE 20 26 11 14 1015.1 - 0.0
17/03:30pm 32.7 24.9 -12.1 5 18.1 S 24 37 13 20 1015.1 - 0.0
17/03:00pm 32.7 24.2 -11.3 5 18.0 S 28 39 15 21 1015.5 1014.1 0.0
17/02:30pm 33.7 27.3 -11.5 5 18.6 S 17 26 9 14 1015.8 - 0.0
17/02:00pm 32.3 25.5 -9.9 6 17.6 ESE 20 26 11 14 1016.2 - 0.0
17/01:30pm 32.0 25.1 -10.5 6 17.5 ESE 20 30 11 16 1016.6 - 0.0
17/01:00pm 31.6 26.3 -11.6 5 17.4 S 11 13 6 7 1016.8 - 0.0
17/12:30pm 32.1 25.3 -11.7 5 17.7 E 19 26 10 14 1017.0 - 0.0
17/12:00pm 31.6 24.6 -11.6 5 17.4 E 20 28 11 15 1017.6 1016.2 0.0
17/11:30am 31.5 24.4 -13.1 5 17.5 E 20 30 11 16 1018.0 - 0.0
17/11:00am 30.5 22.7 -12.8 5 16.9 E 24 32 13 17 1018.4 - 0.0
17/10:30am 29.9 23.1 -11.3 6 16.4 E 19 30 10 16 1018.7 - 0.0
17/10:00am 28.0 21.3 -10.1 7 15.2 E 19 28 10 15 1018.8 - 0.0
17/09:30am 27.0 21.1 -9.7 8 14.6 E 15 24 8 13 1018.9 - 0.0
17/09:00am 25.8 19.7 -7.9 10 13.7 E 17 24 9 13 1019.0 1017.6 0.0
17/08:30am 24.7 19.4 -7.8 11 13.1 E 13 19 7 10 1018.8 - 0.0
17/08:00am 23.3 18.1 -6.3 13 12.1 SE 13 24 7 13 1018.6 - 0.0
17/07:30am 20.9 16.4 -3.5 19 10.3 SSE 11 15 6 8 1018.4 - 0.0
17/07:00am 17.0 12.7 -4.7 22 8.6 E 9 13 5 7 1018.0 - 0.0
17/06:30am 18.8 14.7 -6.2 18 9.8 SE 7 11 4 6 1017.4 - 0.0
17/06:00am 19.2 13.6 -6.2 17 10.0 SSE 15 19 8 10 1016.9 1015.6 0.0
17/05:30am 19.4 15.0 -5.7 18 10.0 SE 9 13 5 7 1016.6 - 0.0
17/05:00am 20.4 15.1 -7.3 15 10.8 SSE 13 15 7 8 1016.1 - 0.0
17/04:30am 20.8 14.7 -7.3 14 11.0 S 17 19 9 10 1015.9 - 0.0
17/04:00am 20.1 14.9 -6.4 16 10.5 S 13 17 7 9 1015.8 - 0.0
17/03:30am 16.4 13.1 -1.3 30 7.5 SSE 6 9 3 5 1015.7 - 0.0
17/03:00am 18.5 14.9 -4.0 21 9.2 S 6 9 3 5 1015.7 1014.3 0.0
17/02:30am 13.9 11.5 -2.8 31 6.7 CALM 0 0 0 0 1015.7 - 0.0
17/02:00am 16.8 13.7 1.5 35 6.9 S 7 9 4 5 1015.9 - 0.0
17/01:30am 18.3 14.4 -1.5 26 8.5 SSE 9 13 5 7 1016.2 - 0.0
17/01:00am 15.2 12.8 -0.5 34 6.7 SW 2 7 1 4 1016.1 - 0.0
17/12:30am 15.9 12.6 -1.5 30 7.3 WSW 6 7 3 4 1016.2 - 0.0
17/12:00am 17.9 15.7 -1.5 26 8.3 CALM 0 0 0 0 1016.3 1014.9 0.0
 
Date/Time
EST
Temp
°C
App
Temp
°C
Dew
Point
Rel
Hum
%
Delta-T
°C
Wind Press
QNH
hPa
Press
MSL
hPa
Rain
since 9 am
mm
Dir
 
Spd
km/h
Gust
km/h
Spd
kts
Gust
kts
16/11:30pm 21.1 17.3 -0.5 23 9.7 SE 9 11 5 6 1016.2 - 0.0
16/11:00pm 25.5 20.8 -5.2 13 13.1 S 11 13 6 7 1016.2 - 0.0
16/10:30pm 25.8 20.7 -4.9 13 13.2 S 13 13 7 7 1016.1 - 0.0
16/10:00pm 25.8 20.6 -6.0 12 13.4 S 13 15 7 8 1016.1 - 0.0
16/09:30pm 26.6 21.0 -6.4 11 13.9 S 15 17 8 9 1016.0 - 0.0
16/09:00pm 26.6 21.9 -4.7 12 13.6 S 11 13 6 7 1015.8 1014.4 0.0
16/08:30pm 26.9 23.1 -1.0 16 13.0 S 9 11 5 6 1015.3 - 0.0
16/08:00pm 27.6 23.0 -4.3 12 14.1 S 11 13 6 7 1015.0 - 0.0
16/07:30pm 28.1 23.3 -2.9 13 14.1 S 13 15 7 8 1014.6 - 0.0
16/07:00pm 29.4 23.5 -6.0 9 15.4 S 17 19 9 10 1014.1 - 0.0
16/06:30pm 30.3 24.4 -5.9 9 15.9 SSW 17 22 9 12 1013.9 - 0.0
16/06:00pm 31.2 23.8 -7.0 8 16.6 SSW 24 28 13 15 1013.7 1012.3 0.0
16/05:30pm 31.9 25.9 -6.4 8 16.9 S 17 22 9 12 1013.6 - 0.0
16/05:00pm 32.6 26.3 -6.3 8 17.3 SSW 19 30 10 16 1013.5 - 0.0
16/04:30pm 32.3 26.5 -8.2 7 17.4 SSW 15 30 8 16 1013.3 - 0.0
16/04:00pm 32.5 27.9 -8.1 7 17.5 SW 9 13 5 7 1013.3 - 0.0

Other Formats:

Comma delimited format used in spreadsheet applications
http://www.bom.gov.au/fwo/IDQ60801/IDQ60801.94332.axf

JavaScript Object Notation format (JSON) in row-major order
http://www.bom.gov.au/fwo/IDQ60801/IDQ60801.94332.json